createdAt,value
2018-12-05T00:00:55.383Z,3.53
2018-12-05T00:01:55.373Z,3.59
2018-12-05T00:02:55.366Z,3.50
2018-12-05T00:03:55.351Z,3.51
2018-12-05T00:04:55.342Z,3.53
2018-12-05T00:05:55.335Z,3.55
2018-12-05T00:06:55.319Z,3.51
2018-12-05T00:07:55.310Z,3.47
2018-12-05T00:08:55.300Z,3.37
2018-12-05T00:09:55.293Z,3.40
2018-12-05T00:10:55.281Z,3.29
2018-12-05T00:11:55.271Z,3.32
2018-12-05T00:12:55.265Z,3.23
2018-12-05T00:13:55.275Z,3.18
2018-12-05T00:14:55.241Z,3.22
2018-12-05T00:15:55.231Z,3.21
2018-12-05T00:16:55.224Z,3.21
2018-12-05T00:17:55.214Z,3.18
2018-12-05T00:18:55.204Z,3.22
2018-12-05T00:19:55.190Z,3.19
2018-12-05T00:20:55.182Z,3.19
2018-12-05T00:21:55.169Z,3.16
2018-12-05T00:22:55.165Z,3.14
2018-12-05T00:23:55.153Z,3.19
2018-12-05T00:24:55.142Z,3.13
2018-12-05T00:25:55.131Z,3.18
2018-12-05T00:26:55.122Z,3.14
2018-12-05T00:27:55.111Z,3.05
2018-12-05T00:28:55.102Z,3.05
2018-12-05T00:29:55.092Z,3.11
2018-12-05T00:30:55.080Z,3.05
2018-12-05T00:31:55.073Z,3.07
2018-12-05T00:32:55.061Z,3.01
2018-12-05T00:33:55.052Z,2.93
2018-12-05T00:34:55.039Z,3.03
2018-12-05T00:35:55.032Z,3.03
2018-12-05T00:36:55.024Z,2.93
2018-12-05T00:37:55.013Z,2.95
2018-12-05T00:38:55.000Z,2.97
2018-12-05T00:39:54.993Z,2.89
2018-12-05T00:40:54.981Z,2.90
2018-12-05T00:41:54.976Z,2.97
2018-12-05T00:42:54.959Z,3.00
2018-12-05T00:43:54.953Z,2.92
2018-12-05T00:44:54.940Z,2.93
2018-12-05T00:45:54.934Z,2.95
2018-12-05T00:46:54.921Z,2.93
2018-12-05T00:47:54.908Z,2.87
2018-12-05T00:48:54.900Z,2.85
2018-12-05T00:49:54.892Z,2.89
2018-12-05T00:50:54.879Z,2.92
2018-12-05T00:51:54.870Z,2.90
2018-12-05T00:52:54.858Z,2.89
2018-12-05T00:53:54.849Z,2.87
2018-12-05T00:54:54.843Z,2.93
2018-12-05T00:55:54.830Z,2.87
2018-12-05T00:56:54.821Z,2.87
2018-12-05T00:57:54.815Z,2.90
2018-12-05T00:58:54.799Z,2.83
2018-12-05T00:59:54.790Z,2.85
2018-12-05T01:00:54.779Z,2.85
2018-12-05T01:01:54.769Z,2.77
2018-12-05T01:02:54.759Z,2.74
2018-12-05T01:03:54.749Z,2.79
2018-12-05T01:04:54.740Z,2.79
2018-12-05T01:05:54.732Z,2.74
2018-12-05T01:06:54.720Z,2.69
2018-12-05T01:07:54.708Z,2.68
2018-12-05T01:08:54.702Z,2.57
2018-12-05T01:09:54.687Z,2.62
2018-12-05T01:10:54.677Z,2.62
2018-12-05T01:11:54.667Z,2.64
2018-12-05T01:12:54.658Z,2.60
2018-12-05T01:13:55.216Z,2.53
2018-12-05T01:14:54.638Z,2.56
2018-12-05T01:15:54.626Z,2.51
2018-12-05T01:16:54.617Z,2.49
2018-12-05T01:17:54.606Z,2.51
2018-12-05T01:18:54.596Z,2.51
2018-12-05T01:19:54.636Z,2.53
2018-12-05T01:20:54.575Z,2.46
2018-12-05T01:21:54.568Z,2.56
2018-12-05T01:22:54.555Z,2.50
2018-12-05T01:23:54.543Z,2.50
2018-12-05T01:24:54.536Z,2.47
2018-12-05T01:25:54.527Z,2.53
2018-12-05T01:26:54.514Z,2.47
2018-12-05T01:27:54.505Z,2.51
2018-12-05T01:28:54.493Z,2.56
2018-12-05T01:29:54.484Z,2.50
2018-12-05T01:30:54.474Z,2.51
2018-12-05T01:31:54.465Z,2.43
2018-12-05T01:32:54.452Z,2.47
2018-12-05T01:33:54.447Z,2.46
2018-12-05T01:34:54.436Z,2.47
2018-12-05T01:35:54.422Z,2.35
2018-12-05T01:36:54.414Z,2.46
2018-12-05T01:37:54.406Z,2.39
2018-12-05T01:38:54.392Z,2.32
2018-12-05T01:39:54.388Z,2.38
2018-12-05T01:40:54.370Z,2.35
2018-12-05T01:41:54.363Z,2.33
2018-12-05T01:42:54.350Z,2.28
2018-12-05T01:43:54.343Z,2.29
2018-12-05T01:44:54.331Z,2.32
2018-12-05T01:45:54.322Z,2.28
2018-12-05T01:46:54.311Z,2.26
2018-12-05T01:47:54.304Z,2.32
2018-12-05T01:48:54.292Z,2.29
2018-12-05T01:49:54.282Z,2.31
2018-12-05T01:50:54.271Z,2.32
2018-12-05T01:51:54.260Z,2.32
2018-12-05T01:52:54.253Z,2.29
2018-12-05T01:53:54.241Z,2.29
2018-12-05T01:54:54.228Z,2.28
2018-12-05T01:55:54.219Z,2.28
2018-12-05T01:56:54.210Z,2.28
2018-12-05T01:57:54.197Z,2.18
2018-12-05T01:58:54.191Z,2.28
2018-12-05T01:59:54.181Z,2.25
2018-12-05T02:00:54.169Z,2.29
2018-12-05T02:01:54.159Z,2.22
2018-12-05T02:02:54.150Z,2.15
2018-12-05T02:03:54.166Z,2.14
2018-12-05T02:04:54.142Z,2.18
2018-12-05T02:05:54.115Z,2.17
2018-12-05T02:06:54.110Z,2.13
2018-12-05T02:07:54.095Z,2.18
2018-12-05T02:08:54.085Z,2.14
2018-12-05T02:09:54.079Z,2.14
2018-12-05T02:10:54.065Z,2.18
2018-12-05T02:11:54.057Z,2.14
2018-12-05T02:12:54.045Z,2.10
2018-12-05T02:13:54.032Z,2.14
2018-12-05T02:14:54.023Z,2.11
2018-12-05T02:15:54.019Z,2.14
2018-12-05T02:16:54.003Z,2.07
2018-12-05T02:17:53.989Z,2.28
2018-12-05T02:18:53.987Z,2.36
2018-12-05T02:19:53.969Z,2.35
2018-12-05T02:20:53.961Z,2.29
2018-12-05T02:21:53.951Z,2.31
2018-12-05T02:22:53.943Z,2.33
2018-12-05T02:23:53.933Z,2.32
2018-12-05T02:24:53.918Z,2.33
2018-12-05T02:25:53.908Z,2.39
2018-12-05T02:26:53.898Z,2.29
2018-12-05T02:27:53.885Z,2.35
2018-12-05T02:28:53.877Z,2.29
2018-12-05T02:29:53.867Z,2.28
2018-12-05T02:30:53.854Z,2.31
2018-12-05T02:31:53.845Z,2.36
2018-12-05T02:32:53.835Z,2.32
2018-12-05T02:33:53.826Z,2.33
2018-12-05T02:34:53.812Z,2.31
2018-12-05T02:35:53.806Z,2.31
2018-12-05T02:36:53.795Z,2.25
2018-12-05T02:37:53.783Z,2.28
2018-12-05T02:38:53.773Z,2.25
2018-12-05T02:39:53.763Z,2.17
2018-12-05T02:40:53.763Z,2.15
2018-12-05T02:41:53.743Z,2.11
2018-12-05T02:42:53.728Z,2.14
2018-12-05T02:43:53.719Z,2.13
2018-12-05T02:44:53.713Z,2.08
2018-12-05T02:45:53.699Z,2.02
2018-12-05T02:46:53.693Z,2.04
2018-12-05T02:47:53.677Z,2.06
2018-12-05T02:48:53.665Z,2.04
2018-12-05T02:49:53.654Z,1.92
2018-12-05T02:50:53.651Z,1.95
2018-12-05T02:51:53.635Z,2.02
2018-12-05T02:52:53.625Z,1.81
2018-12-05T02:53:53.617Z,1.91
2018-12-05T02:54:53.605Z,1.84
2018-12-05T02:55:53.597Z,1.88
2018-12-05T02:56:53.585Z,1.92
2018-12-05T02:57:53.577Z,1.91
2018-12-05T02:58:53.564Z,1.74
2018-12-05T02:59:53.552Z,1.74
2018-12-05T03:00:53.542Z,1.80
2018-12-05T03:01:53.531Z,1.77
2018-12-05T03:02:53.520Z,1.68
2018-12-05T03:03:53.509Z,1.70
2018-12-05T03:04:53.507Z,1.63
2018-12-05T03:05:53.491Z,1.60
2018-12-05T03:06:53.478Z,1.66
2018-12-05T03:07:54.235Z,1.63
2018-12-05T03:08:53.457Z,1.58
2018-12-05T03:09:53.450Z,1.66
2018-12-05T03:10:53.439Z,1.62
2018-12-05T03:11:53.427Z,1.52
2018-12-05T03:12:53.417Z,1.60
2018-12-05T03:13:53.405Z,1.50
2018-12-05T03:14:53.394Z,1.53
2018-12-05T03:15:53.386Z,1.53
2018-12-05T03:16:53.373Z,1.44
2018-12-05T03:17:53.370Z,1.53
2018-12-05T03:18:53.356Z,1.55
2018-12-05T03:19:53.341Z,1.53
2018-12-05T03:20:53.336Z,1.60
2018-12-05T03:21:53.325Z,1.55
2018-12-05T03:22:53.312Z,1.62
2018-12-05T03:23:53.299Z,1.55
2018-12-05T03:24:53.294Z,1.56
2018-12-05T03:25:53.279Z,1.53
2018-12-05T03:26:53.267Z,1.58
2018-12-05T03:27:53.260Z,1.49
2018-12-05T03:28:53.247Z,1.53
2018-12-05T03:29:53.246Z,1.50
2018-12-05T03:30:53.227Z,1.58
2018-12-05T03:31:53.221Z,1.50
2018-12-05T03:32:53.232Z,1.48
2018-12-05T03:33:53.199Z,1.48
2018-12-05T03:34:53.185Z,1.41
2018-12-05T03:35:53.173Z,1.44
2018-12-05T03:36:53.163Z,1.56
2018-12-05T03:37:53.153Z,1.53
2018-12-05T03:38:53.140Z,1.48
2018-12-05T03:39:53.137Z,1.55
2018-12-05T03:40:53.123Z,1.40
2018-12-05T03:41:53.109Z,1.44
2018-12-05T03:42:53.097Z,1.40
2018-12-05T03:43:53.089Z,1.41
2018-12-05T03:44:53.078Z,1.44
2018-12-05T03:45:53.067Z,1.44
2018-12-05T03:46:53.059Z,1.48
2018-12-05T03:47:53.046Z,1.44
2018-12-05T03:48:53.034Z,1.41
2018-12-05T03:49:53.025Z,1.40
2018-12-05T03:50:53.015Z,1.37
2018-12-05T03:51:53.004Z,1.26
2018-12-05T03:52:52.998Z,1.41
2018-12-05T03:53:52.986Z,1.37
2018-12-05T03:54:52.976Z,1.32
2018-12-05T03:55:52.962Z,1.37
2018-12-05T03:56:52.951Z,1.38
2018-12-05T03:57:52.945Z,1.30
2018-12-05T03:58:52.935Z,1.37
2018-12-05T03:59:52.920Z,1.31
2018-12-05T04:00:52.909Z,1.34
2018-12-05T04:01:52.896Z,1.38
2018-12-05T04:02:52.889Z,1.38
2018-12-05T04:03:52.878Z,1.37
2018-12-05T04:04:52.871Z,1.34
2018-12-05T04:05:52.857Z,1.41
2018-12-05T04:06:52.843Z,1.40
2018-12-05T04:07:52.839Z,1.32
2018-12-05T04:08:52.825Z,1.40
2018-12-05T04:09:52.817Z,1.41
2018-12-05T04:10:52.801Z,1.31
2018-12-05T04:11:52.794Z,1.41
2018-12-05T04:12:52.782Z,1.35
2018-12-05T04:13:52.773Z,1.38
2018-12-05T04:14:52.759Z,1.42
2018-12-05T04:15:52.740Z,1.32
2018-12-05T04:16:52.740Z,1.35
2018-12-05T04:17:52.723Z,1.32
2018-12-05T04:18:52.712Z,1.23
2018-12-05T04:19:52.704Z,1.26
2018-12-05T04:20:52.693Z,1.26
2018-12-05T04:21:52.683Z,1.35
2018-12-05T04:22:52.671Z,1.37
2018-12-05T04:23:52.659Z,1.31
2018-12-05T04:24:52.658Z,1.35
2018-12-05T04:25:52.654Z,1.35
2018-12-05T04:26:52.623Z,1.34
2018-12-05T04:27:52.616Z,1.24
2018-12-05T04:28:52.611Z,1.23
2018-12-05T04:29:52.594Z,1.31
2018-12-05T04:30:52.583Z,1.37
2018-12-05T04:31:52.574Z,1.31
2018-12-05T04:32:52.561Z,1.37
2018-12-05T04:33:52.553Z,1.28
2018-12-05T04:34:52.549Z,1.28
2018-12-05T04:35:52.529Z,1.28
2018-12-05T04:36:52.520Z,1.24
2018-12-05T04:37:52.779Z,1.22
2018-12-05T04:38:52.497Z,1.24
2018-12-05T04:39:52.487Z,1.20
2018-12-05T04:40:52.481Z,1.13
2018-12-05T04:41:52.466Z,1.12
2018-12-05T04:42:52.457Z,1.22
2018-12-05T04:43:52.449Z,1.08
2018-12-05T04:44:52.431Z,1.12
2018-12-05T04:45:52.427Z,1.06
2018-12-05T04:46:52.413Z,1.19
2018-12-05T04:47:52.403Z,1.08
2018-12-05T04:48:52.392Z,1.06
2018-12-05T04:49:52.384Z,1.13
2018-12-05T04:50:52.370Z,1.08
2018-12-05T04:51:52.363Z,1.12
2018-12-05T04:52:52.347Z,1.06
2018-12-05T04:53:52.345Z,1.02
2018-12-05T04:54:52.325Z,1.04
2018-12-05T04:55:52.319Z,0.98
2018-12-05T04:56:52.301Z,0.99
2018-12-05T04:57:52.294Z,0.94
2018-12-05T04:58:52.289Z,0.99
2018-12-05T04:59:52.277Z,1.02
2018-12-05T05:00:52.264Z,0.99
2018-12-05T05:01:52.253Z,0.87
2018-12-05T05:02:52.238Z,1.05
2018-12-05T05:03:52.230Z,0.94
2018-12-05T05:04:52.226Z,0.95
2018-12-05T05:05:52.213Z,1.01
2018-12-05T05:06:52.195Z,0.92
2018-12-05T05:07:52.190Z,0.95
2018-12-05T05:08:52.174Z,0.95
2018-12-05T05:09:52.170Z,0.98
2018-12-05T05:10:52.156Z,1.02
2018-12-05T05:11:52.143Z,1.01
2018-12-05T05:12:52.156Z,1.12
2018-12-05T05:13:52.119Z,0.98
2018-12-05T05:14:52.112Z,1.13
2018-12-05T05:15:52.100Z,1.17
2018-12-05T05:16:52.093Z,1.12
2018-12-05T05:17:52.078Z,1.05
2018-12-05T05:18:52.071Z,1.16
2018-12-05T05:19:52.053Z,1.13
2018-12-05T05:20:52.043Z,1.13
2018-12-05T05:21:52.041Z,1.13
2018-12-05T05:22:52.029Z,1.16
2018-12-05T05:23:52.011Z,1.08
2018-12-05T05:24:52.009Z,1.13
2018-12-05T05:25:51.998Z,1.12
2018-12-05T05:26:51.983Z,1.04
2018-12-05T05:27:51.969Z,1.06
2018-12-05T05:28:51.956Z,1.05
2018-12-05T05:29:51.946Z,1.02
2018-12-05T05:30:51.937Z,1.14
2018-12-05T05:31:51.927Z,1.05
2018-12-05T05:32:51.913Z,1.12
2018-12-05T05:33:51.905Z,1.02
2018-12-05T05:34:51.896Z,1.01
2018-12-05T05:35:51.881Z,1.13
2018-12-05T05:36:51.871Z,1.08
2018-12-05T05:37:51.863Z,1.02
2018-12-05T05:38:51.849Z,1.08
2018-12-05T05:39:51.837Z,1.06
2018-12-05T05:40:51.833Z,1.12
2018-12-05T05:41:51.816Z,1.05
2018-12-05T05:42:51.806Z,1.16
2018-12-05T05:43:51.799Z,1.13
2018-12-05T05:44:51.785Z,1.06
2018-12-05T05:45:51.774Z,1.14
2018-12-05T05:46:51.766Z,1.16
2018-12-05T05:47:51.749Z,1.17
2018-12-05T05:48:51.741Z,1.14
2018-12-05T05:49:51.733Z,1.13
2018-12-05T05:50:51.718Z,1.16
2018-12-05T05:51:51.708Z,1.19
2018-12-05T05:52:51.706Z,1.14
2018-12-05T05:53:51.686Z,1.10
2018-12-05T05:54:51.673Z,1.06
2018-12-05T05:55:51.667Z,1.20
2018-12-05T05:56:51.655Z,1.10
2018-12-05T05:57:51.641Z,1.12
2018-12-05T05:58:51.633Z,1.08
2018-12-05T05:59:51.624Z,1.14
2018-12-05T06:00:51.609Z,1.10
2018-12-05T06:01:51.603Z,1.10
2018-12-05T06:02:51.588Z,0.98
2018-12-05T06:03:51.580Z,1.01
2018-12-05T06:04:51.570Z,1.12
2018-12-05T06:05:51.554Z,0.99
2018-12-05T06:06:51.546Z,1.14
2018-12-05T06:07:51.540Z,1.17
2018-12-05T06:08:51.522Z,1.17
2018-12-05T06:09:51.517Z,1.24
2018-12-05T06:10:51.506Z,1.14
2018-12-05T06:11:51.487Z,1.20
2018-12-05T06:12:51.481Z,1.16
2018-12-05T06:13:51.477Z,1.32
2018-12-05T06:14:51.458Z,1.37
2018-12-05T06:15:51.447Z,1.37
2018-12-05T06:16:51.435Z,1.32
2018-12-05T06:17:51.427Z,1.38
2018-12-05T06:18:51.418Z,1.37
2018-12-05T06:19:51.411Z,1.32
2018-12-05T06:20:52.261Z,1.37
2018-12-05T06:21:51.385Z,1.40
2018-12-05T06:22:51.377Z,1.37
2018-12-05T06:23:51.357Z,1.37
2018-12-05T06:24:51.352Z,1.32
2018-12-05T06:25:51.345Z,1.35
2018-12-05T06:26:51.330Z,1.20
2018-12-05T06:27:51.317Z,1.31
2018-12-05T06:28:51.305Z,1.20
2018-12-05T06:29:51.293Z,1.17
2018-12-05T06:30:51.286Z,0.98
2018-12-05T06:31:51.276Z,1.10
2018-12-05T06:32:51.261Z,1.12
2018-12-05T06:33:51.252Z,1.05
2018-12-05T06:34:51.245Z,1.12
2018-12-05T06:35:51.228Z,1.06
2018-12-05T06:36:51.217Z,1.04
2018-12-05T06:37:51.212Z,0.87
2018-12-05T06:38:51.198Z,1.01
2018-12-05T06:39:51.180Z,0.91
2018-12-05T06:40:51.169Z,0.91
2018-12-05T06:41:51.163Z,0.96
2018-12-05T06:42:51.154Z,1.04
2018-12-05T06:43:51.146Z,1.01
2018-12-05T06:44:51.129Z,1.14
2018-12-05T06:45:51.766Z,1.02
2018-12-05T06:46:51.116Z,1.04
2018-12-05T06:47:51.096Z,1.10
2018-12-05T06:48:51.090Z,1.06
2018-12-05T06:49:51.081Z,1.12
2018-12-05T06:50:51.061Z,1.12
2018-12-05T06:51:51.048Z,1.10
2018-12-05T06:52:51.039Z,0.98
2018-12-05T06:53:51.030Z,1.05
2018-12-05T06:54:51.106Z,1.02
2018-12-05T06:55:51.009Z,1.02
2018-12-05T06:56:50.998Z,1.01
2018-12-05T06:57:50.987Z,1.04
2018-12-05T06:58:50.973Z,1.08
2018-12-05T06:59:50.967Z,1.04
2018-12-05T07:00:50.957Z,0.99
2018-12-05T07:01:50.943Z,0.98
2018-12-05T07:02:50.927Z,0.99
2018-12-05T07:03:50.921Z,0.92
2018-12-05T07:04:50.912Z,0.86
2018-12-05T07:05:50.901Z,0.87
2018-12-05T07:06:50.885Z,0.84
2018-12-05T07:07:50.873Z,0.91
2018-12-05T07:08:50.865Z,0.83
2018-12-05T07:09:50.853Z,0.83
2018-12-05T07:10:50.842Z,0.83
2018-12-05T07:11:50.829Z,0.81
2018-12-05T07:12:50.821Z,0.81
2018-12-05T07:13:50.808Z,0.86
2018-12-05T07:14:50.801Z,0.83
2018-12-05T07:15:50.787Z,0.68
2018-12-05T07:16:50.775Z,0.63
2018-12-05T07:17:50.763Z,0.76
2018-12-05T07:18:50.752Z,0.69
2018-12-05T07:19:50.744Z,0.65
2018-12-05T07:20:50.787Z,0.59
2018-12-05T07:21:50.721Z,0.63
2018-12-05T07:22:50.715Z,0.63
2018-12-05T07:23:50.699Z,0.59
2018-12-05T07:24:50.694Z,0.62
2018-12-05T07:25:50.674Z,0.59
2018-12-05T07:26:50.664Z,0.63
2018-12-05T07:27:50.656Z,0.76
2018-12-05T07:28:50.645Z,0.78
2018-12-05T07:29:50.633Z,0.73
2018-12-05T07:30:50.625Z,0.83
2018-12-05T07:31:50.612Z,0.78
2018-12-05T07:32:50.601Z,0.80
2018-12-05T07:33:51.274Z,0.76
2018-12-05T07:34:50.578Z,0.73
2018-12-05T07:35:50.567Z,0.81
2018-12-05T07:36:50.556Z,0.87
2018-12-05T07:37:50.542Z,0.81
2018-12-05T07:38:50.530Z,0.88
2018-12-05T07:39:50.522Z,0.87
2018-12-05T07:40:50.512Z,0.99
2018-12-05T07:41:50.501Z,1.04
2018-12-05T07:42:50.493Z,1.06
2018-12-05T07:43:50.475Z,1.12
2018-12-05T07:44:50.465Z,1.06
2018-12-05T07:45:50.461Z,1.13
2018-12-05T07:46:50.445Z,1.20
2018-12-05T07:47:50.435Z,1.28
2018-12-05T07:48:50.425Z,1.20
2018-12-05T07:49:50.413Z,1.28
2018-12-05T07:50:50.404Z,1.32
2018-12-05T07:51:50.393Z,1.37
2018-12-05T07:52:50.385Z,1.37
2018-12-05T07:53:50.371Z,1.41
2018-12-05T07:54:50.363Z,1.38
2018-12-05T07:55:50.345Z,1.37
2018-12-05T07:56:50.339Z,1.44
2018-12-05T07:57:50.326Z,1.40
2018-12-05T07:58:50.314Z,1.38
2018-12-05T07:59:50.304Z,1.41
2018-12-05T08:00:50.294Z,1.45
2018-12-05T08:01:50.282Z,1.48
2018-12-05T08:02:50.270Z,1.56
2018-12-05T08:03:50.261Z,1.58
2018-12-05T08:04:50.249Z,1.60
2018-12-05T08:05:50.240Z,1.62
2018-12-05T08:06:50.229Z,1.62
2018-12-05T08:07:50.215Z,1.63
2018-12-05T08:08:50.213Z,1.67
2018-12-05T08:09:50.197Z,1.74
2018-12-05T08:10:50.181Z,1.77
2018-12-05T08:11:50.172Z,1.84
2018-12-05T08:12:50.166Z,1.91
2018-12-05T08:13:50.193Z,1.81
2018-12-05T08:14:50.140Z,1.87
2018-12-05T08:15:50.140Z,1.84
2018-12-05T08:16:50.118Z,1.87
2018-12-05T08:17:50.110Z,1.81
2018-12-05T08:18:50.098Z,1.85
2018-12-05T08:19:50.109Z,2.04
2018-12-05T08:20:50.078Z,2.07
2018-12-05T08:21:50.067Z,2.06
2018-12-05T08:22:50.051Z,2.15
2018-12-05T08:23:50.046Z,2.08
2018-12-05T08:24:50.038Z,2.10
2018-12-05T08:25:50.028Z,2.10
2018-12-05T08:26:50.013Z,2.15
2018-12-05T08:27:50.002Z,2.14
2018-12-05T08:28:49.991Z,2.18
2018-12-05T08:29:49.989Z,2.10
2018-12-05T08:30:49.970Z,2.20
2018-12-05T08:31:49.961Z,2.13
2018-12-05T08:32:49.953Z,2.13
2018-12-05T08:33:49.940Z,2.13
2018-12-05T08:34:49.929Z,2.10
2018-12-05T08:35:49.922Z,2.20
2018-12-05T08:36:49.905Z,2.29
2018-12-05T08:37:49.900Z,2.33
2018-12-05T08:38:49.889Z,2.26
2018-12-05T08:39:49.881Z,2.29
2018-12-05T08:40:49.864Z,2.33
2018-12-05T08:41:49.857Z,2.46
2018-12-05T08:42:49.842Z,2.47
2018-12-05T08:43:49.838Z,2.50
2018-12-05T08:44:49.826Z,2.62
2018-12-05T08:45:49.815Z,2.67
2018-12-05T08:46:49.802Z,2.61
2018-12-05T08:47:49.795Z,2.62
2018-12-05T08:48:49.786Z,2.68
2018-12-05T08:49:49.780Z,2.74
2018-12-05T08:50:49.761Z,2.69
2018-12-05T08:51:49.752Z,2.72
2018-12-05T08:52:49.742Z,2.87
2018-12-05T08:53:49.732Z,2.79
2018-12-05T08:54:49.721Z,2.86
2018-12-05T08:55:49.713Z,2.87
2018-12-05T08:56:49.702Z,2.89
2018-12-05T08:57:49.696Z,2.97
2018-12-05T08:58:49.682Z,3.00
2018-12-05T08:59:49.672Z,3.01
2018-12-05T09:00:49.662Z,3.05
2018-12-05T09:01:49.650Z,3.00
2018-12-05T09:02:49.638Z,3.11
2018-12-05T09:03:49.632Z,3.16
2018-12-05T09:04:49.618Z,3.16
2018-12-05T09:05:49.610Z,3.16
2018-12-05T09:06:49.600Z,3.19
2018-12-05T09:07:49.587Z,3.18
2018-12-05T09:08:49.573Z,3.28
2018-12-05T09:09:49.571Z,3.29
2018-12-05T09:10:49.557Z,3.36
2018-12-05T09:11:49.547Z,3.42
2018-12-05T09:12:49.538Z,3.45
2018-12-05T09:13:49.528Z,3.56
2018-12-05T09:14:49.517Z,3.53
2018-12-05T09:15:49.508Z,3.56
2018-12-05T09:16:49.498Z,3.53
2018-12-05T09:17:49.493Z,3.59
2018-12-05T09:18:49.475Z,3.56
2018-12-05T09:19:49.468Z,3.56
2018-12-05T09:20:49.461Z,3.55
2018-12-05T09:21:49.444Z,3.73
2018-12-05T09:22:49.434Z,3.60
2018-12-05T09:23:49.427Z,3.74
2018-12-05T09:24:49.415Z,3.68
2018-12-05T09:25:49.408Z,3.80
2018-12-05T09:26:49.395Z,3.84
2018-12-05T09:27:49.391Z,3.80
2018-12-05T09:28:49.376Z,3.83
2018-12-05T09:29:49.364Z,3.88
2018-12-05T09:30:49.356Z,3.83
2018-12-05T09:31:49.349Z,3.86
2018-12-05T09:32:49.340Z,3.91
2018-12-05T09:33:49.332Z,3.98
2018-12-05T09:34:49.315Z,3.99
2018-12-05T09:35:49.307Z,3.98
2018-12-05T09:36:49.305Z,4.01
2018-12-05T09:37:49.288Z,4.04
2018-12-05T09:38:49.276Z,4.04
2018-12-05T09:39:49.273Z,4.05
2018-12-05T09:40:49.256Z,3.99
2018-12-05T09:41:49.256Z,3.99
2018-12-05T09:42:49.238Z,4.08
2018-12-05T09:43:49.224Z,4.10
2018-12-05T09:44:49.217Z,4.10
2018-12-05T09:45:49.206Z,4.16
2018-12-05T09:46:49.193Z,4.20
2018-12-05T09:47:49.190Z,4.24
2018-12-05T09:48:49.180Z,4.24
2018-12-05T09:49:49.176Z,4.24
2018-12-05T09:50:49.162Z,4.28
2018-12-05T09:51:49.146Z,4.41
2018-12-05T09:52:49.152Z,4.35
2018-12-05T09:53:49.136Z,4.44
2018-12-05T09:54:49.127Z,4.42
2018-12-05T09:55:49.113Z,4.53
2018-12-05T09:56:49.108Z,4.50
2018-12-05T09:57:49.094Z,4.56
2018-12-05T09:58:49.081Z,4.58
2018-12-05T09:59:49.080Z,4.63
2018-12-05T10:00:49.068Z,4.66
2018-12-05T10:01:49.057Z,4.70
2018-12-05T10:02:49.048Z,4.68
2018-12-05T10:03:49.037Z,4.77
2018-12-05T10:04:49.022Z,4.74
2018-12-05T10:05:49.023Z,4.73
2018-12-05T10:06:49.006Z,4.73
2018-12-05T10:07:48.996Z,4.73
2018-12-05T10:08:48.989Z,4.80
2018-12-05T10:09:48.979Z,4.86
2018-12-05T10:10:48.969Z,4.82
2018-12-05T10:11:48.962Z,4.82
2018-12-05T10:12:48.950Z,4.87
2018-12-05T10:13:48.944Z,5.04
2018-12-05T10:14:48.928Z,4.99
2018-12-05T10:15:48.923Z,5.04
2018-12-05T10:16:48.914Z,5.04
2018-12-05T10:17:48.903Z,5.07
2018-12-05T10:18:48.898Z,5.08
2018-12-05T10:19:48.883Z,5.10
2018-12-05T10:20:55.816Z,5.18
2018-12-05T10:21:48.866Z,5.17
2018-12-05T10:22:48.859Z,5.14
2018-12-05T10:23:48.864Z,5.20
2018-12-05T10:24:48.835Z,5.14
2018-12-05T10:25:48.828Z,5.21
2018-12-05T10:26:48.819Z,5.29
2018-12-05T10:27:48.812Z,5.23
2018-12-05T10:28:48.806Z,5.39
2018-12-05T10:29:48.792Z,5.38
2018-12-05T10:30:48.782Z,5.44
2018-12-05T10:31:48.773Z,5.46
2018-12-05T10:32:48.765Z,5.48
2018-12-05T10:33:48.761Z,5.56
2018-12-05T10:34:48.744Z,5.53
2018-12-05T10:35:48.736Z,5.51
2018-12-05T10:36:48.728Z,5.53
2018-12-05T10:37:48.717Z,5.57
2018-12-05T10:38:48.710Z,5.62
2018-12-05T10:39:48.701Z,5.61
2018-12-05T10:40:48.696Z,5.59
2018-12-05T10:41:48.684Z,5.62
2018-12-05T10:42:48.673Z,5.71
2018-12-05T10:43:48.663Z,5.59
2018-12-05T10:44:48.659Z,5.68
2018-12-05T10:45:48.647Z,5.76
2018-12-05T10:46:48.637Z,5.84
2018-12-05T10:47:48.629Z,5.79
2018-12-05T10:48:48.623Z,5.79
2018-12-05T10:49:48.614Z,5.86
2018-12-05T10:50:48.600Z,5.86
2018-12-05T10:51:48.592Z,5.89
2018-12-05T10:52:48.584Z,5.87
2018-12-05T10:53:48.583Z,5.97
2018-12-05T10:54:48.561Z,5.98
2018-12-05T10:55:48.557Z,6.05
2018-12-05T10:56:48.548Z,6.04
2018-12-05T10:57:48.541Z,5.99
2018-12-05T10:58:48.531Z,6.02
2018-12-05T10:59:48.527Z,6.07
2018-12-05T11:00:48.512Z,6.17
2018-12-05T11:01:48.503Z,6.16
2018-12-05T11:02:48.494Z,6.17
2018-12-05T11:03:48.486Z,6.19
2018-12-05T11:04:48.478Z,6.20
2018-12-05T11:05:48.473Z,6.16
2018-12-05T11:06:48.457Z,6.27
2018-12-05T11:07:48.448Z,6.19
2018-12-05T11:08:48.442Z,6.22
2018-12-05T11:09:48.432Z,6.22
2018-12-05T11:10:48.426Z,6.26
2018-12-05T11:11:48.416Z,6.36
2018-12-05T11:12:48.410Z,6.45
2018-12-05T11:13:48.398Z,6.42
2018-12-05T11:14:48.387Z,6.51
2018-12-05T11:15:48.385Z,6.44
2018-12-05T11:16:48.372Z,6.52
2018-12-05T11:17:48.365Z,6.48
2018-12-05T11:18:48.438Z,6.59
2018-12-05T11:19:48.347Z,6.57
2018-12-05T11:20:48.338Z,6.64
2018-12-05T11:21:49.832Z,6.56
2018-12-05T11:22:48.321Z,6.66
2018-12-05T11:23:48.311Z,6.57
2018-12-05T11:24:48.305Z,6.59
2018-12-05T11:25:48.293Z,6.67
2018-12-05T11:26:48.286Z,6.69
2018-12-05T11:27:48.282Z,6.72
2018-12-05T11:28:48.269Z,6.79
2018-12-05T11:29:48.266Z,6.78
2018-12-05T11:30:48.253Z,6.88
2018-12-05T11:31:48.246Z,6.92
2018-12-05T11:32:48.240Z,6.96
2018-12-05T11:33:48.233Z,6.99
2018-12-05T11:34:48.218Z,6.96
2018-12-05T11:35:48.211Z,7.02
2018-12-05T11:36:48.209Z,6.97
2018-12-05T11:37:48.191Z,6.93
2018-12-05T11:38:48.186Z,7.00
2018-12-05T11:39:48.177Z,6.89
2018-12-05T11:40:48.170Z,7.06
2018-12-05T11:41:48.160Z,7.05
2018-12-05T11:42:48.153Z,6.96
2018-12-05T11:43:48.146Z,6.93
2018-12-05T11:44:48.133Z,7.06
2018-12-05T11:45:48.207Z,7.03
2018-12-05T11:46:48.639Z,6.93
2018-12-05T11:47:48.111Z,7.11
2018-12-05T11:48:48.106Z,6.89
2018-12-05T11:49:48.095Z,6.93
2018-12-05T11:50:48.088Z,7.07
2018-12-05T11:51:48.080Z,7.07
2018-12-05T11:52:48.072Z,7.10
2018-12-05T11:53:48.060Z,7.13
2018-12-05T11:54:48.053Z,6.95
2018-12-05T11:55:48.046Z,7.06
2018-12-05T11:56:48.037Z,7.10
2018-12-05T11:57:48.031Z,7.06
2018-12-05T11:58:48.022Z,6.95
2018-12-05T11:59:48.016Z,7.10
2018-12-05T12:00:48.006Z,7.07
2018-12-05T12:01:48.000Z,7.06
2018-12-05T12:02:47.987Z,7.11
2018-12-05T12:03:47.980Z,7.05
2018-12-05T12:04:47.973Z,7.07
2018-12-05T12:05:47.964Z,7.03
2018-12-05T12:06:47.956Z,7.02
2018-12-05T12:07:47.949Z,7.11
2018-12-05T12:08:47.944Z,7.02
2018-12-05T12:09:47.937Z,7.06
2018-12-05T12:10:47.925Z,7.06
2018-12-05T12:11:47.915Z,6.97
2018-12-05T12:12:47.907Z,7.17
2018-12-05T12:13:47.900Z,7.10
2018-12-05T12:14:47.891Z,7.05
2018-12-05T12:15:47.889Z,7.13
2018-12-05T12:16:47.878Z,7.20
2018-12-05T12:17:47.871Z,7.20
2018-12-05T12:18:47.859Z,7.15
2018-12-05T12:19:47.858Z,7.17
2018-12-05T12:20:47.843Z,7.20
2018-12-05T12:21:47.841Z,7.20
2018-12-05T12:22:47.827Z,7.23
2018-12-05T12:23:47.905Z,7.20
2018-12-05T12:24:47.811Z,7.23
2018-12-05T12:25:47.806Z,7.24
2018-12-05T12:26:47.804Z,7.20
2018-12-05T12:27:47.789Z,7.24
2018-12-05T12:28:47.782Z,7.23
2018-12-05T12:29:47.779Z,7.29
2018-12-05T12:30:47.762Z,7.24
2018-12-05T12:31:47.759Z,7.25
2018-12-05T12:32:47.749Z,7.32
2018-12-05T12:33:47.740Z,7.25
2018-12-05T12:34:47.732Z,7.33
2018-12-05T12:35:47.725Z,7.32
2018-12-05T12:36:47.715Z,7.35
2018-12-05T12:37:47.713Z,7.35
2018-12-05T12:38:47.700Z,7.25
2018-12-05T12:39:47.694Z,7.25
2018-12-05T12:40:47.683Z,7.32
2018-12-05T12:41:47.676Z,7.33
2018-12-05T12:42:47.669Z,7.43
2018-12-05T12:43:47.660Z,7.43
2018-12-05T12:44:47.657Z,7.40
2018-12-05T12:45:47.647Z,7.40
2018-12-05T12:46:47.634Z,7.38
2018-12-05T12:47:47.626Z,7.33
2018-12-05T12:48:47.623Z,7.33
2018-12-05T12:49:47.612Z,7.38
2018-12-05T12:50:47.605Z,7.33
2018-12-05T12:51:47.595Z,7.31
2018-12-05T12:52:47.588Z,7.28
2018-12-05T12:53:47.581Z,7.23
2018-12-05T12:54:47.572Z,7.28
2018-12-05T12:55:47.580Z,7.24
2018-12-05T12:56:47.559Z,7.24
2018-12-05T12:57:47.554Z,7.21
2018-12-05T12:58:47.542Z,7.25
2018-12-05T12:59:47.535Z,7.20
2018-12-05T13:00:47.527Z,6.99
2018-12-05T13:01:47.517Z,7.05
2018-12-05T13:02:47.510Z,6.95
2018-12-05T13:03:47.501Z,6.92
2018-12-05T13:04:47.493Z,6.96
2018-12-05T13:05:47.488Z,6.95
2018-12-05T13:06:47.477Z,6.95
2018-12-05T13:07:47.471Z,6.84
2018-12-05T13:08:47.462Z,6.77
2018-12-05T13:09:47.455Z,6.96
2018-12-05T13:10:47.443Z,6.99
2018-12-05T13:11:47.440Z,6.88
2018-12-05T13:12:47.430Z,6.84
2018-12-05T13:13:47.425Z,6.89
2018-12-05T13:14:47.411Z,6.96
2018-12-05T13:15:47.405Z,6.95
2018-12-05T13:16:47.396Z,6.96
2018-12-05T13:17:47.389Z,6.96
2018-12-05T13:18:47.384Z,6.95